Time;durP1;ratioP1;P1;durP2;ratioP2;P2;SDS_P1;SDS_P2;PMS_P1;PMS_P2;Temp;Humidity;BMP_temperature;BMP_pressure;BME280_temperature;BME280_humidity;BME280_pressure;Samples;Min_cycle;Max_cycle;Signal;HPM_P1;HPM_P2
2021/03/30 00:01:07;;;;;;;1999.90;999.90;;;;;;;12.04;82.68;99570.25;5018168;28;20572;-65
2021/03/30 00:03:34;;;;;;;1999.90;999.90;;;;;;;12.27;81.63;99566.47;5014763;28;20068;-65
2021/03/30 00:06:00;;;;;;;1999.90;999.90;;;;;;;12.04;82.67;99556.38;5016847;28;20049;-65
2021/03/30 00:08:27;;;;;;;1999.90;999.90;;;;;;;11.81;83.58;99553.44;5014736;28;20045;-66
2021/03/30 00:10:55;;;;;;;1999.90;999.90;;;;;;;12.03;82.66;99557.50;5019968;28;20072;-65
2021/03/30 00:13:22;;;;;;;1999.90;999.90;;;;;;;11.94;83.11;99560.19;5008525;28;20058;-65
2021/03/30 00:15:48;;;;;;;1999.90;999.90;;;;;;;11.51;84.83;99558.38;5020462;28;20480;-65
2021/03/30 00:18:15;;;;;;;1999.90;999.90;;;;;;;11.11;86.88;99549.59;5018423;28;20058;-66
2021/03/30 00:20:41;;;;;;;1999.90;999.90;;;;;;;11.71;84.93;99550.84;5013849;28;20057;-65
2021/03/30 00:23:07;;;;;;;1999.90;999.90;;;;;;;11.76;84.96;99547.97;5010656;28;20053;-65
2021/03/30 00:25:33;;;;;;;1999.90;999.90;;;;;;;11.93;84.29;99547.44;5017228;28;20045;-65
2021/03/30 00:28:01;;;;;;;1999.90;999.90;;;;;;;12.21;82.87;99541.94;5012261;28;20057;-65
2021/03/30 00:30:27;;;;;;;1999.90;999.90;;;;;;;11.96;83.29;99544.06;5021846;28;20053;-65
2021/03/30 00:32:53;;;;;;;1999.90;999.90;;;;;;;12.20;82.58;99551.38;5018123;28;20046;-65
2021/03/30 00:35:20;;;;;;;1999.90;999.90;;;;;;;12.21;82.47;99542.75;5012860;28;20058;-65
2021/03/30 00:37:46;;;;;;;1999.90;999.90;;;;;;;12.39;81.78;99551.28;5022580;28;20437;-65
2021/03/30 00:40:13;;;;;;;1999.90;999.90;;;;;;;12.26;82.16;99544.59;5017533;28;20053;-65
2021/03/30 00:42:39;;;;;;;1999.90;999.90;;;;;;;12.24;82.30;99547.69;5018779;28;20057;-65
2021/03/30 00:45:07;;;;;;;1999.90;999.90;;;;;;;12.43;81.83;99543.97;5016338;28;20058;-65
2021/03/30 00:47:34;;;;;;;1999.90;999.90;;;;;;;12.39;81.96;99542.97;5019617;28;20077;-65
2021/03/30 00:50:01;;;;;;;1999.90;999.90;;;;;;;12.31;82.04;99542.53;5011551;28;20452;-64
2021/03/30 00:52:27;;;;;;;1999.90;999.90;;;;;;;12.22;82.41;99544.41;5015035;28;20092;-64
2021/03/30 00:54:54;;;;;;;1999.90;999.90;;;;;;;12.03;83.57;99557.50;5013250;28;20052;-64
2021/03/30 00:57:20;;;;;;;1999.90;999.90;;;;;;;12.07;83.29;99551.06;5021234;28;20062;-65
2021/03/30 00:59:46;;;;;;;1999.90;999.90;;;;;;;12.25;82.56;99548.47;5018978;28;20049;-65
2021/03/30 01:02:13;;;;;;;1999.90;999.90;;;;;;;11.91;83.71;99552.41;5019397;28;20108;-64
2021/03/30 01:04:40;;;;;;;1999.90;999.90;;;;;;;12.03;83.54;99549.19;5017111;28;20053;-65
2021/03/30 01:07:07;;;;;;;1999.90;999.90;;;;;;;11.82;84.42;99546.78;5012540;28;20053;-65
2021/03/30 01:09:40;;;;;;;1999.90;999.90;;;;;;;12.08;83.46;99546.31;5024885;28;20042;-65
2021/03/30 01:12:19;;;;;;;1999.90;999.90;;;;;;;12.11;83.51;99540.16;5017653;28;20049;-65
2021/03/30 01:15:03;;;;;;;1999.90;999.90;;;;;;;12.15;83.04;99532.88;5025497;28;20076;-65
2021/03/30 01:18:17;;;;;;;1999.90;999.90;;;;;;;11.42;85.62;99530.56;5016654;28;20184;-64
2021/03/30 01:20:54;;;;;;;1999.90;999.90;;;;;;;11.62;85.88;99539.63;5022471;28;20524;-64
2021/03/30 01:23:33;;;;;;;1999.90;999.90;;;;;;;11.80;84.85;99537.94;5020489;28;20127;-64
2021/03/30 01:26:25;;;;;;;1999.90;999.90;;;;;;;11.84;84.38;99536.19;5015802;28;20050;-64
2021/03/30 01:29:23;;;;;;;1999.90;999.90;;;;;;;11.87;84.50;99526.47;5022291;28;20053;-65
2021/03/30 01:31:56;;;;;;;1999.90;999.90;;;;;;;11.71;85.08;99526.72;5015158;28;20053;-65
2021/03/30 01:34:24;;;;;;;1999.90;999.90;;;;;;;11.94;84.06;99515.84;5017310;28;20046;-65
2021/03/30 01:36:53;;;;;;;1999.90;999.90;;;;;;;11.83;84.36;99517.09;5017440;28;20176;-65
2021/03/30 01:39:21;;;;;;;1999.90;999.90;;;;;;;11.74;84.84;99528.06;5019792;28;20127;-65
2021/03/30 01:41:49;;;;;;;1999.90;999.90;;;;;;;11.83;84.98;99520.69;5018694;28;20064;-65
2021/03/30 01:44:20;;;;;;;1999.90;999.90;;;;;;;11.83;84.59;99515.16;5019009;28;20054;-65
2021/03/30 01:46:49;;;;;;;1999.90;999.90;;;;;;;11.71;85.27;99514.84;5022703;28;20041;-65
2021/03/30 01:49:17;;;;;;;1999.90;999.90;;;;;;;11.80;85.08;99511.06;5021066;28;20300;-65
2021/03/30 01:51:45;;;;;;;1999.90;999.90;;;;;;;11.75;85.56;99504.78;5018451;28;20041;-65
2021/03/30 01:54:12;;;;;;;1999.90;999.90;;;;;;;11.62;85.83;99512.75;5018367;28;20104;-65
2021/03/30 01:56:41;;;;;;;1999.90;999.90;;;;;;;11.72;85.54;99510.94;5014826;28;20473;-65
2021/03/30 01:59:13;;;;;;;1999.90;999.90;;;;;;;11.91;84.98;99508.06;5017077;28;20076;-65
2021/03/30 02:01:40;;;;;;;1999.90;999.90;;;;;;;12.16;83.76;99512.31;5017402;28;20057;-65
2021/03/30 02:04:07;;;;;;;1999.90;999.90;;;;;;;12.30;82.77;99520.66;5018381;28;20058;-65
2021/03/30 02:06:36;;;;;;;1999.90;999.90;;;;;;;12.40;82.44;99511.28;5016876;28;20049;-65
2021/03/30 02:09:10;;;;;;;1999.90;999.90;;;;;;;12.05;83.89;99513.69;5020266;28;20562;-65
2021/03/30 02:11:44;;;;;;;1999.90;999.90;;;;;;;11.94;84.93;99516.66;5018579;28;20411;-65
2021/03/30 02:14:12;;;;;;;1999.90;999.90;;;;;;;12.08;84.19;99500.00;5015438;28;20057;-67
2021/03/30 02:16:46;;;;;;;1999.90;999.90;;;;;;;11.74;85.54;99512.25;5013400;28;20497;-65
2021/03/30 02:19:17;;;;;;;1999.90;999.90;;;;;;;11.88;84.99;99517.84;5016053;28;20054;-65
2021/03/30 02:21:55;;;;;;;1999.90;999.90;;;;;;;12.05;84.58;99510.91;5017042;28;20421;-65
2021/03/30 02:24:22;;;;;;;1999.90;999.90;;;;;;;12.32;83.32;99507.28;5014537;28;20057;-65
2021/03/30 02:26:50;;;;;;;1999.90;999.90;;;;;;;12.23;83.15;99506.38;5019685;28;20558;-65
2021/03/30 02:29:21;;;;;;;1999.90;999.90;;;;;;;12.12;84.06;99508.56;5022993;28;20053;-65
2021/03/30 02:31:51;;;;;;;1999.90;999.90;;;;;;;12.30;83.21;99507.59;5019007;28;20073;-65
2021/03/30 02:34:18;;;;;;;1999.90;999.90;;;;;;;12.55;81.96;99505.44;5022704;28;20045;-65
2021/03/30 02:36:47;;;;;;;1999.90;999.90;;;;;;;12.27;82.74;99513.78;5018401;28;20096;-65
2021/03/30 02:39:14;;;;;;;1999.90;999.90;;;;;;;12.22;83.24;99508.34;5017744;28;20045;-65
2021/03/30 02:41:42;;;;;;;1999.90;999.90;;;;;;;12.02;84.20;99505.97;5018619;28;20054;-65
2021/03/30 02:44:10;;;;;;;1999.90;999.90;;;;;;;11.91;84.73;99508.91;5018969;28;20050;-65
2021/03/30 02:46:39;;;;;;;1999.90;999.90;;;;;;;11.48;86.53;99506.38;5020620;28;20038;-66
2021/03/30 02:49:09;;;;;;;1999.90;999.90;;;;;;;11.51;86.59;99503.00;5014395;28;20072;-65
2021/03/30 02:51:37;;;;;;;1999.90;999.90;;;;;;;11.76;85.76;99506.41;5014059;28;20447;-65
2021/03/30 02:54:04;;;;;;;1999.90;999.90;;;;;;;11.71;85.57;99506.53;5020261;28;20056;-66
2021/03/30 02:56:32;;;;;;;1999.90;999.90;;;;;;;12.07;84.57;99498.38;5012353;28;20397;-66
2021/03/30 02:58:58;;;;;;;1999.90;999.90;;;;;;;11.86;85.50;99495.13;5018070;28;20057;-65
2021/03/30 03:01:24;;;;;;;1999.90;999.90;;;;;;;12.02;84.57;99500.44;5013901;28;20049;-65
2021/03/30 03:03:52;;;;;;;1999.90;999.90;;;;;;;12.16;83.98;99495.69;5015103;28;20100;-65
2021/03/30 03:06:19;;;;;;;1999.90;999.90;;;;;;;12.26;83.58;99494.69;5015007;28;20046;-65
2021/03/30 03:08:47;;;;;;;1999.90;999.90;;;;;;;12.30;83.16;99490.97;5033781;28;20394;-65
2021/03/30 03:11:16;;;;;;;1999.90;999.90;;;;;;;12.48;82.55;99494.75;5021619;28;20053;-65
2021/03/30 03:13:46;;;;;;;1999.90;999.90;;;;;;;12.53;82.09;99499.34;5020236;28;20080;-65
2021/03/30 03:16:13;;;;;;;1999.90;999.90;;;;;;;12.54;81.90;99491.88;5016035;28;20049;-65
2021/03/30 03:18:43;;;;;;;1999.90;999.90;;;;;;;12.21;83.09;99497.56;5011882;28;20075;-65
2021/03/30 03:21:11;;;;;;;1999.90;999.90;;;;;;;12.35;82.71;99498.34;5018970;28;20050;-65
2021/03/30 03:23:38;;;;;;;1999.90;999.90;;;;;;;12.40;82.53;99501.03;5012823;28;20045;-65
2021/03/30 03:26:08;;;;;;;1999.90;999.90;;;;;;;12.35;82.46;99497.53;5020599;28;20045;-65
2021/03/30 03:28:42;;;;;;;1999.90;999.90;;;;;;;12.44;82.10;99504.00;5018219;28;20095;-65
2021/03/30 03:31:12;;;;;;;1999.90;999.90;;;;;;;12.43;82.17;99500.41;5018972;28;20049;-65
2021/03/30 03:33:39;;;;;;;1999.90;999.90;;;;;;;12.46;81.83;99504.50;5015005;28;20374;-65
2021/03/30 03:36:11;;;;;;;1999.90;999.90;;;;;;;12.44;81.73;99502.03;5011725;28;20055;-65
2021/03/30 03:38:42;;;;;;;1999.90;999.90;;;;;;;12.41;81.94;99499.06;5018438;28;20469;-65
2021/03/30 03:41:12;;;;;;;1999.90;999.90;;;;;;;12.46;82.06;99498.94;5013456;28;20053;-65
2021/03/30 03:43:39;;;;;;;1999.90;999.90;;;;;;;12.47;81.78;99498.63;5019847;28;20058;-65
2021/03/30 03:49:46;;;;;;;1999.90;999.90;;;;;;;12.27;82.48;99497.13;5020858;28;20457;-65
2021/03/30 03:52:13;;;;;;;1999.90;999.90;;;;;;;12.23;82.32;99495.28;5018117;28;20104;-65
2021/03/30 03:54:43;;;;;;;1999.90;999.90;;;;;;;12.14;82.72;99486.88;5016100;28;22039;-65
2021/03/30 03:57:15;;;;;;;1999.90;999.90;;;;;;;12.19;82.72;99489.53;5017692;28;20053;-65
2021/03/30 03:59:44;;;;;;;1999.90;999.90;;;;;;;12.12;82.56;99497.47;5016355;28;20054;-65
2021/03/30 04:02:18;;;;;;;1999.90;999.90;;;;;;;12.22;82.22;99486.16;5011239;28;20100;-65
2021/03/30 04:05:09;;;;;;;1999.90;999.90;;;;;;;12.01;83.04;99507.09;5011165;28;20562;-65
2021/03/30 04:07:44;;;;;;;1999.90;999.90;;;;;;;11.97;82.99;99504.13;5016994;28;20041;-65
2021/03/30 04:10:12;;;;;;;1999.90;999.90;;;;;;;12.16;82.19;99509.56;5013058;28;20061;-65
2021/03/30 04:12:40;;;;;;;1999.90;999.90;;;;;;;12.26;81.76;99509.34;5013426;28;20049;-65
2021/03/30 04:15:08;;;;;;;1999.90;999.90;;;;;;;12.41;81.18;99508.22;5016667;28;20066;-65
2021/03/30 04:17:34;;;;;;;1999.90;999.90;;;;;;;12.32;81.48;99505.34;5014220;28;20096;-65
2021/03/30 04:20:09;;;;;;;1999.90;999.90;;;;;;;12.21;81.62;99506.69;5016343;28;20057;-65
2021/03/30 04:22:37;;;;;;;1999.90;999.90;;;;;;;12.27;81.55;99518.50;5017340;28;20073;-65
2021/03/30 04:25:05;;;;;;;1999.90;999.90;;;;;;;12.41;80.77;99519.31;5017888;28;20115;-65
2021/03/30 04:27:32;;;;;;;1999.90;999.90;;;;;;;12.27;80.98;99524.06;5047113;28;20859;-65
2021/03/30 04:29:58;;;;;;;1999.90;999.90;;;;;;;12.11;81.69;99523.53;5015176;28;20053;-65
2021/03/30 04:32:25;;;;;;;1999.90;999.90;;;;;;;12.11;81.64;99526.31;5016599;28;21044;-65
2021/03/30 04:34:51;;;;;;;1999.90;999.90;;;;;;;12.16;81.29;99520.66;5015877;28;20053;-65
2021/03/30 04:37:17;;;;;;;1999.90;999.90;;;;;;;12.32;80.83;99516.44;5011601;28;20095;-65
2021/03/30 04:39:43;;;;;;;1999.90;999.90;;;;;;;12.03;81.66;99516.75;5013131;28;20381;-65
2021/03/30 04:42:10;;;;;;;1999.90;999.90;;;;;;;12.06;81.72;99526.38;5008913;28;20057;-65
2021/03/30 04:44:37;;;;;;;1999.90;999.90;;;;;;;12.17;81.37;99527.84;5009549;28;20054;-65
2021/03/30 04:47:03;;;;;;;1999.90;999.90;;;;;;;12.11;80.89;99520.75;5014203;28;20050;-65
2021/03/30 04:49:29;;;;;;;1999.90;999.90;;;;;;;12.20;80.82;99524.44;5011424;28;20084;-65
2021/03/30 04:51:55;;;;;;;1999.90;999.90;;;;;;;12.31;80.46;99525.91;5014072;28;20489;-65
2021/03/30 04:54:22;;;;;;;1999.90;999.90;;;;;;;12.35;80.00;99522.50;5012520;28;20488;-65
2021/03/30 04:56:49;;;;;;;1999.90;999.90;;;;;;;12.46;79.49;99529.47;5013197;28;20574;-65
2021/03/30 04:59:15;;;;;;;1999.90;999.90;;;;;;;12.43;79.56;99528.16;5017933;28;20054;-65
2021/03/30 05:01:41;;;;;;;1999.90;999.90;;;;;;;12.56;79.27;99532.03;5013243;28;20054;-65
2021/03/30 05:04:07;;;;;;;1999.90;999.90;;;;;;;12.62;78.73;99529.97;5013156;28;20050;-65
2021/03/30 05:06:33;;;;;;;1999.90;999.90;;;;;;;12.64;78.59;99534.09;5012663;28;20042;-65
2021/03/30 05:09:00;;;;;;;1999.90;999.90;;;;;;;12.65;78.75;99535.75;5014399;28;20045;-65
2021/03/30 05:11:26;;;;;;;1999.90;999.90;;;;;;;12.71;78.71;99527.28;5019374;28;20459;-65
2021/03/30 05:13:52;;;;;;;1999.90;999.90;;;;;;;12.57;78.91;99533.69;5008677;28;20580;-64
2021/03/30 05:16:18;;;;;;;1999.90;999.90;;;;;;;12.59;79.05;99527.81;5020525;28;20500;-65
2021/03/30 05:18:44;;;;;;;1999.90;999.90;;;;;;;12.53;78.86;99538.19;5015517;28;20053;-65
2021/03/30 05:21:11;;;;;;;1999.90;999.90;;;;;;;12.46;79.31;99543.34;5016032;28;20058;-65
2021/03/30 05:23:38;;;;;;;1999.90;999.90;;;;;;;12.32;80.00;99544.16;5015422;28;20053;-65
2021/03/30 05:26:04;;;;;;;1999.90;999.90;;;;;;;12.24;80.58;99544.91;5011006;28;20128;-65
2021/03/30 05:28:31;;;;;;;1999.90;999.90;;;;;;;12.54;79.53;99545.41;5013090;28;20057;-65
2021/03/30 05:30:57;;;;;;;1999.90;999.90;;;;;;;12.57;79.21;99550.31;5016561;28;20053;-65
2021/03/30 05:33:23;;;;;;;1999.90;999.90;;;;;;;12.76;78.69;99552.13;5011766;28;20049;-66
2021/03/30 05:35:49;;;;;;;1999.90;999.90;;;;;;;12.73;78.77;99552.75;5013900;28;20057;-65
2021/03/30 05:38:15;;;;;;;1999.90;999.90;;;;;;;12.69;78.80;99549.81;5011878;28;20046;-65
2021/03/30 05:40:42;;;;;;;1999.90;999.90;;;;;;;12.64;78.97;99549.94;5013030;28;20464;-65
2021/03/30 05:43:10;;;;;;;1999.90;999.90;;;;;;;12.84;78.69;99556.97;5016028;28;20057;-65
2021/03/30 05:45:37;;;;;;;1999.90;999.90;;;;;;;13.00;78.11;99557.47;5015622;28;20056;-65
2021/03/30 05:48:07;;;;;;;1999.90;999.90;;;;;;;13.10;78.11;99550.84;5016705;28;20727;-65
2021/03/30 05:50:35;;;;;;;1999.90;999.90;;;;;;;13.20;77.60;99559.75;5016260;28;20052;-65
2021/03/30 05:53:07;;;;;;;1999.90;999.90;;;;;;;13.20;77.35;99556.16;5012008;28;20064;-65
2021/03/30 05:55:38;;;;;;;1999.90;999.90;;;;;;;13.39;77.32;99565.16;5013595;28;20058;-65
2021/03/30 05:58:06;;;;;;;1999.90;999.90;;;;;;;13.43;77.37;99561.75;5014980;28;20385;-65
2021/03/30 06:00:35;;;;;;;1999.90;999.90;;;;;;;13.44;77.42;99571.72;5015391;28;20050;-66
2021/03/30 06:03:30;;;;;;;1999.90;999.90;;;;;;;13.74;76.26;99562.63;5017605;28;20058;-65
2021/03/30 06:05:58;;;;;;;1999.90;999.90;;;;;;;13.85;75.60;99565.97;5016505;28;20053;-65
2021/03/30 06:08:26;;;;;;;1999.90;999.90;;;;;;;13.91;75.28;99573.03;5015782;28;20045;-66
2021/03/30 06:10:55;;;;;;;1999.90;999.90;;;;;;;14.12;74.84;99569.69;5046983;28;20456;-65
2021/03/30 06:13:45;;;;;;;1999.90;999.90;;;;;;;14.37;74.64;99570.16;5015117;28;20054;-65
2021/03/30 06:16:23;;;;;;;1999.90;999.90;;;;;;;14.52;74.23;99574.47;5017358;28;20757;-65
2021/03/30 06:19:04;;;;;;;1999.90;999.90;;;;;;;14.66;73.41;99575.16;5020302;28;20515;-65
2021/03/30 06:21:31;;;;;;;1999.90;999.90;;;;;;;14.86;72.79;99584.09;5017217;28;20115;-65
2021/03/30 06:23:58;;;;;;;1999.90;999.90;;;;;;;14.96;72.34;99570.66;5013963;28;20096;-65
2021/03/30 06:26:26;;;;;;;1999.90;999.90;;;;;;;15.10;71.69;99578.06;5015699;28;20057;-66
2021/03/30 06:28:53;;;;;;;1999.90;999.90;;;;;;;15.24;70.84;99575.09;5022889;28;20443;-65
2021/03/30 06:31:20;;;;;;;1999.90;999.90;;;;;;;15.26;70.74;99583.97;5014554;28;20053;-66
2021/03/30 06:33:52;;;;;;;1999.90;999.90;;;;;;;15.35;69.68;99579.22;5016753;28;20853;-65
2021/03/30 06:36:26;;;;;;;1999.90;999.90;;;;;;;15.50;70.44;99575.91;5018429;28;20485;-65
2021/03/30 06:39:03;;;;;;;1999.90;999.90;;;;;;;15.62;69.44;99580.03;5013488;28;20049;-65
2021/03/30 06:41:58;;;;;;;1999.90;999.90;;;;;;;15.59;68.86;99575.09;5013400;28;20058;-65
2021/03/30 06:44:27;;;;;;;1999.90;999.90;;;;;;;15.52;66.92;99583.94;5017025;28;20060;-65
2021/03/30 06:47:00;;;;;;;1999.90;999.90;;;;;;;15.16;69.07;99595.44;5015918;28;20041;-65
2021/03/30 06:49:29;;;;;;;1999.90;999.90;;;;;;;15.45;68.00;99592.81;5016803;28;20500;-66
2021/03/30 06:51:56;;;;;;;1999.90;999.90;;;;;;;15.62;68.41;99593.97;5011656;28;20061;-66
2021/03/30 06:54:23;;;;;;;1999.90;999.90;;;;;;;15.67;68.47;99594.63;5020437;28;20053;-66
2021/03/30 06:56:56;;;;;;;1999.90;999.90;;;;;;;15.91;68.21;99603.63;5013332;28;20452;-66
2021/03/30 06:59:23;;;;;;;1999.90;999.90;;;;;;;16.10;67.34;99606.03;5014332;28;20054;-64
2021/03/30 07:01:52;;;;;;;1999.90;999.90;;;;;;;16.05;66.43;99604.25;5014837;28;20666;-65
2021/03/30 07:04:19;;;;;;;1999.90;999.90;;;;;;;16.01;65.09;99594.91;5014965;28;20460;-65
2021/03/30 07:06:51;;;;;;;1999.90;999.90;;;;;;;15.96;62.56;99609.84;5021249;28;20105;-64
2021/03/30 07:09:17;;;;;;;1999.90;999.90;;;;;;;16.31;62.76;99609.75;5010966;28;20061;-64
2021/03/30 07:11:45;;;;;;;1999.90;999.90;;;;;;;16.10;61.42;99615.22;5015685;28;20053;-64
2021/03/30 07:14:12;;;;;;;1999.90;999.90;;;;;;;16.14;59.47;99609.81;5015316;28;20058;-64
2021/03/30 07:16:50;;;;;;;1999.90;999.90;;;;;;;15.95;60.32;99615.75;5018179;28;20504;-64
2021/03/30 07:19:21;;;;;;;1999.90;999.90;;;;;;;15.70;60.77;99615.44;5016371;28;20064;-64
2021/03/30 07:22:05;;;;;;;1999.90;999.90;;;;;;;15.39;61.27;99615.59;5016098;28;20049;-64
2021/03/30 07:24:56;;;;;;;1999.90;999.90;;;;;;;15.88;60.14;99613.47;5012137;28;20061;-63
2021/03/30 07:27:30;;;;;;;1999.90;999.90;;;;;;;16.06;59.62;99619.00;5016490;28;20460;-64
2021/03/30 07:29:59;;;;;;;1999.90;999.90;;;;;;;16.10;60.65;99620.81;5012985;28;20140;-64
2021/03/30 07:32:34;;;;;;;1999.90;999.90;;;;;;;15.91;60.39;99621.16;5018490;28;20056;-64
2021/03/30 07:35:20;;;;;;;1999.90;999.90;;;;;;;15.61;61.23;99622.97;5015287;28;20054;-64
2021/03/30 07:38:13;;;;;;;1999.90;999.90;;;;;;;16.06;60.13;99625.41;5015301;28;20058;-65
2021/03/30 07:40:41;;;;;;;1999.90;999.90;;;;;;;15.87;61.72;99631.38;5011573;28;20104;-65
2021/03/30 07:43:10;;;;;;;1999.90;999.90;;;;;;;15.82;60.56;99624.00;5010822;28;20107;-65
2021/03/30 07:45:40;;;;;;;1999.90;999.90;;;;;;;15.57;61.59;99624.78;5014419;28;20053;-64
2021/03/30 07:48:10;;;;;;;1999.90;999.90;;;;;;;15.70;62.24;99625.78;5020320;28;20419;-65
2021/03/30 07:50:49;;;;;;;1999.90;999.90;;;;;;;16.18;60.28;99614.41;5009997;28;20058;-65
2021/03/30 07:53:56;;;;;;;1999.90;999.90;;;;;;;15.77;62.08;99614.94;5013145;28;20057;-65
2021/03/30 07:56:22;;;;;;;1999.90;999.90;;;;;;;15.87;59.49;99614.63;5015969;28;20073;-65
2021/03/30 07:58:49;;;;;;;1999.90;999.90;;;;;;;15.57;61.57;99616.41;5008556;28;20050;-66
2021/03/30 08:01:19;;;;;;;1999.90;999.90;;;;;;;15.63;60.16;99626.25;5013622;28;20077;-66
2021/03/30 08:03:46;;;;;;;1999.90;999.90;;;;;;;15.56;59.60;99621.19;5012859;28;20064;-65
2021/03/30 08:06:37;;;;;;;1999.90;999.90;;;;;;;15.65;60.81;99616.41;5012828;28;20053;-65
2021/03/30 08:09:07;;;;;;;1999.90;999.90;;;;;;;15.60;60.49;99619.38;5009139;28;20049;-65
2021/03/30 08:11:39;;;;;;;1999.90;999.90;;;;;;;15.79;61.89;99613.47;5012388;28;20052;-65
2021/03/30 08:14:28;;;;;;;1999.90;999.90;;;;;;;15.81;58.87;99619.56;5016238;28;20053;-65
2021/03/30 08:17:11;;;;;;;1999.90;999.90;;;;;;;15.66;59.52;99636.75;5011420;28;20054;-65
2021/03/30 08:19:59;;;;;;;1999.90;999.90;;;;;;;15.75;59.13;99634.78;5019919;28;20045;-65
2021/03/30 08:22:29;;;;;;;1999.90;999.90;;;;;;;16.12;59.12;99638.06;5017443;28;20053;-64
2021/03/30 08:24:57;;;;;;;1999.90;999.90;;;;;;;16.17;59.67;99623.91;5010641;28;20060;-64
2021/03/30 08:27:44;;;;;;;1999.90;999.90;;;;;;;15.59;59.45;99631.69;5014844;28;20294;-64
2021/03/30 08:30:49;;;;;;;1999.90;999.90;;;;;;;15.51;60.88;99635.28;5017662;28;20053;-64
2021/03/30 08:33:20;;;;;;;1999.90;999.90;;;;;;;15.64;61.34;99636.25;5017546;28;20152;-64
2021/03/30 08:35:47;;;;;;;1999.90;999.90;;;;;;;16.36;60.20;99631.06;5012479;28;20053;-64
2021/03/30 08:38:40;;;;;;;1999.90;999.90;;;;;;;16.35;59.23;99641.44;5011911;28;20088;-64
2021/03/30 08:41:07;;;;;;;1999.90;999.90;;;;;;;16.24;59.90;99639.31;5029081;28;20057;-64
2021/03/30 08:43:33;;;;;;;1999.90;999.90;;;;;;;16.94;58.16;99647.44;5009574;28;20050;-64
2021/03/30 08:46:11;;;;;;;1999.90;999.90;;;;;;;16.35;59.45;99635.03;5016177;28;20108;-64
2021/03/30 08:48:43;;;;;;;1999.90;999.90;;;;;;;16.64;58.94;99636.22;5021209;28;20049;-65
2021/03/30 08:51:15;;;;;;;1999.90;999.90;;;;;;;16.72;59.20;99638.19;5015136;28;20049;-64
2021/03/30 08:53:43;;;;;;;1999.90;999.90;;;;;;;17.00;58.61;99637.72;5010536;28;20049;-65
2021/03/30 08:56:11;;;;;;;1999.90;999.90;;;;;;;17.07;59.48;99636.06;5012141;28;20050;-64
2021/03/30 08:58:49;;;;;;;1999.90;999.90;;;;;;;17.10;58.22;99642.91;5017704;28;20053;-65
2021/03/30 09:01:15;;;;;;;1999.90;999.90;;;;;;;17.33;58.52;99634.22;5011347;28;20050;-65
2021/03/30 09:03:43;;;;;;;1999.90;999.90;;;;;;;17.93;56.32;99637.72;5010402;28;20064;-65
2021/03/30 09:06:34;;;;;;;1999.90;999.90;;;;;;;18.03;55.53;99640.06;5020373;28;20064;-65
2021/03/30 09:09:01;;;;;;;1999.90;999.90;;;;;;;17.59;56.12;99636.81;5016499;28;20288;-65
2021/03/30 09:11:30;;;;;;;1999.90;999.90;;;;;;;17.64;55.86;99631.03;5012277;28;20056;-65
2021/03/30 09:14:08;;;;;;;1999.90;999.90;;;;;;;18.51;55.13;99636.94;5017316;28;20053;-65
2021/03/30 09:16:37;;;;;;;1999.90;999.90;;;;;;;18.14;54.67;99640.44;5020265;28;20052;-65
2021/03/30 09:19:33;;;;;;;1999.90;999.90;;;;;;;18.13;54.98;99650.84;5017998;28;20046;-66
2021/03/30 09:22:03;;;;;;;1999.90;999.90;;;;;;;18.13;53.66;99650.00;5016780;28;20050;-64
2021/03/30 09:24:45;;;;;;;1999.90;999.90;;;;;;;17.69;54.93;99652.38;5023219;28;20136;-63
2021/03/30 09:27:12;;;;;;;1999.90;999.90;;;;;;;17.31;55.99;99658.91;5020312;28;20074;-64
2021/03/30 09:29:40;;;;;;;1999.90;999.90;;;;;;;17.67;55.14;99649.09;5022078;28;20082;-66
2021/03/30 09:32:08;;;;;;;1999.90;999.90;;;;;;;17.96;55.59;99651.00;5018510;28;20520;-65
2021/03/30 09:34:41;;;;;;;1999.90;999.90;;;;;;;18.32;53.62;99652.28;5016964;28;20053;-66
2021/03/30 09:37:08;;;;;;;1999.90;999.90;;;;;;;18.24;53.28;99651.22;5017986;28;20527;-66
2021/03/30 09:39:36;;;;;;;1999.90;999.90;;;;;;;17.95;54.77;99649.38;5015339;28;20052;-66
2021/03/30 09:42:04;;;;;;;1999.90;999.90;;;;;;;17.15;56.41;99655.88;5016165;28;20080;-65
2021/03/30 09:44:35;;;;;;;1999.90;999.90;;;;;;;17.08;57.62;99654.44;5015144;28;20053;-66
2021/03/30 09:47:07;;;;;;;1999.90;999.90;;;;;;;17.59;56.66;99651.59;5046455;28;20053;-66
2021/03/30 09:49:34;;;;;;;1999.90;999.90;;;;;;;17.84;55.33;99648.94;5014751;28;20501;-66
2021/03/30 09:52:03;;;;;;;1999.90;999.90;;;;;;;17.87;55.11;99648.25;5015888;28;20202;-65
2021/03/30 09:54:42;;;;;;;1999.90;999.90;;;;;;;18.34;53.57;99654.72;5019611;28;20137;-66
2021/03/30 09:57:31;;;;;;;1999.90;999.90;;;;;;;17.99;53.08;99641.13;5023175;28;20485;-65
2021/03/30 09:59:58;;;;;;;1999.90;999.90;;;;;;;17.90;54.61;99646.78;5018269;28;20136;-65
2021/03/30 10:02:29;;;;;;;1999.90;999.90;;;;;;;17.29;55.63;99644.47;5022276;28;20124;-65
2021/03/30 10:05:00;;;;;;;1999.90;999.90;;;;;;;17.51;56.15;99646.13;5012267;28;20054;-64
2021/03/30 10:07:39;;;;;;;1999.90;999.90;;;;;;;17.77;56.86;99637.47;5011924;28;20088;-64
2021/03/30 10:10:07;;;;;;;1999.90;999.90;;;;;;;18.02;55.51;99644.03;5012862;28;20061;-64
2021/03/30 10:12:38;;;;;;;1999.90;999.90;;;;;;;18.19;54.23;99634.66;5019648;28;20053;-65
2021/03/30 10:15:06;;;;;;;1999.90;999.90;;;;;;;17.81;54.79;99641.25;5016508;28;20145;-64
2021/03/30 10:17:32;;;;;;;1999.90;999.90;;;;;;;17.65;55.89;99629.03;5015261;28;21243;-65
2021/03/30 10:20:00;;;;;;;1999.90;999.90;;;;;;;17.53;56.63;99629.78;5009701;28;20056;-65
2021/03/30 10:22:32;;;;;;;1999.90;999.90;;;;;;;18.05;55.70;99626.53;5017054;28;20060;-65
2021/03/30 10:25:21;;;;;;;1999.90;999.90;;;;;;;18.73;54.17;99630.88;5014061;28;20071;-66
2021/03/30 10:27:47;;;;;;;1999.90;999.90;;;;;;;18.83;54.43;99632.38;5019280;28;20054;-65
2021/03/30 10:30:13;;;;;;;1999.90;999.90;;;;;;;19.11;55.41;99624.09;5016082;28;20505;-65
2021/03/30 10:32:53;;;;;;;1999.90;999.90;;;;;;;18.92;55.30;99626.69;5016295;28;20053;-65
2021/03/30 10:35:20;;;;;;;1999.90;999.90;;;;;;;18.86;55.24;99617.72;5015468;28;20497;-65
2021/03/30 10:37:47;;;;;;;1999.90;999.90;;;;;;;19.69;54.12;99615.44;5015082;28;20116;-66
2021/03/30 10:40:14;;;;;;;1999.90;999.90;;;;;;;19.54;55.53;99607.78;5014819;28;20801;-64
2021/03/30 10:42:41;;;;;;;1999.90;999.90;;;;;;;19.17;55.33;99614.31;5015764;28;20057;-64
2021/03/30 10:45:09;;;;;;;1999.90;999.90;;;;;;;19.37;53.83;99606.06;5015649;28;20456;-64
2021/03/30 10:47:38;;;;;;;1999.90;999.90;;;;;;;19.29;56.05;99610.66;5015062;28;20053;-63
2021/03/30 10:50:10;;;;;;;1999.90;999.90;;;;;;;19.22;54.67;99610.44;5005444;28;20294;-64
2021/03/30 10:52:38;;;;;;;1999.90;999.90;;;;;;;19.70;54.16;99603.03;5011037;28;20053;-64
2021/03/30 10:55:12;;;;;;;1999.90;999.90;;;;;;;19.77;54.97;99593.19;5017698;28;20141;-65
2021/03/30 10:57:43;;;;;;;1999.90;999.90;;;;;;;19.62;56.59;99594.75;5014590;28;20085;-64
2021/03/30 11:00:10;;;;;;;1999.90;999.90;;;;;;;19.40;55.16;99594.16;5015773;28;20062;-65
2021/03/30 11:02:37;;;;;;;1999.90;999.90;;;;;;;19.08;58.97;99593.16;5015753;28;20057;-65
2021/03/30 11:05:07;;;;;;;1999.90;999.90;;;;;;;19.42;56.90;99591.78;5014826;28;20050;-65
2021/03/30 11:07:34;;;;;;;1999.90;999.90;;;;;;;19.46;53.74;99600.34;5012804;28;20053;-64
2021/03/30 11:10:01;;;;;;;1999.90;999.90;;;;;;;19.69;55.36;99595.81;5023165;28;20092;-65
2021/03/30 11:12:28;;;;;;;1999.90;999.90;;;;;;;20.08;54.86;99589.66;5015111;28;20049;-65
2021/03/30 11:14:54;;;;;;;1999.90;999.90;;;;;;;20.55;53.14;99586.06;5012929;28;20460;-65